Time;durP1;ratioP1;P1;durP2;ratioP2;P2;SDS_P1;SDS_P2;PMS_P1;PMS_P2;Temp;Humidity;BMP_temperature;BMP_pressure;BME280_temperature;BME280_humidity;BME280_pressure;Samples;Min_cycle;Max_cycle;Signal;HPM_P1;HPM_P2
2023/05/17 00:00:45;;;;;;;9.50;1.08;;;7.60;99.90;;;;;;5037491;28;20106;-75
2023/05/17 00:03:10;;;;;;;8.00;0.60;;;7.50;99.90;;;;;;5055069;28;20028;-75
2023/05/17 00:05:36;;;;;;;13.00;1.17;;;7.50;99.90;;;;;;5037445;28;20124;-75
2023/05/17 00:08:01;;;;;;;3.95;0.73;;;7.50;99.90;;;;;;5055143;28;20071;-75
2023/05/17 00:10:27;;;;;;;6.80;0.60;;;7.60;99.90;;;;;;5037188;28;20029;-75
2023/05/17 00:12:52;;;;;;;10.98;1.23;;;7.50;99.90;;;;;;5054903;28;20024;-75
2023/05/17 00:15:18;;;;;;;15.30;2.55;;;7.50;99.90;;;;;;5037079;28;20032;-75
2023/05/17 00:17:43;;;;;;;8.88;0.77;;;7.50;99.90;;;;;;5055359;28;20033;-75
2023/05/17 00:20:09;;;;;;;7.63;0.73;;;7.50;99.90;;;;;;5055023;28;20021;-75
2023/05/17 00:22:36;;;;;;;8.20;1.23;;;7.50;99.90;;;;;;5054950;28;20107;-75
2023/05/17 00:25:02;;;;;;;9.25;0.70;;;7.50;99.90;;;;;;5054763;28;20020;-75
2023/05/17 00:27:28;;;;;;;7.55;0.77;;;7.40;99.90;;;;;;5054460;28;20485;-75
2023/05/17 00:29:53;;;;;;;6.22;0.55;;;7.40;99.90;;;;;;5037223;28;20028;-75
2023/05/17 00:32:19;;;;;;;10.52;0.73;;;7.40;99.90;;;;;;5054965;28;20091;-75
2023/05/17 00:34:45;;;;;;;6.90;0.65;;;7.40;99.90;;;;;;5036832;28;20090;-75
2023/05/17 00:37:10;;;;;;;7.40;0.63;;;7.40;99.90;;;;;;5054735;28;20072;-75
2023/05/17 00:39:36;;;;;;;7.07;0.98;;;7.40;99.90;;;;;;5054531;28;20488;-75
2023/05/17 00:42:03;;;;;;;9.98;1.42;;;7.40;99.90;;;;;;5054353;28;20503;-75
2023/05/17 00:44:29;;;;;;;10.00;1.95;;;7.30;99.90;;;;;;5036413;28;20020;-75
2023/05/17 00:46:54;;;;;;;8.25;0.82;;;7.40;99.90;;;;;;5036642;28;20025;-75
2023/05/17 00:49:20;;;;;;;9.85;1.00;;;7.40;99.90;;;;;;5036646;28;20102;-75
2023/05/17 00:51:45;;;;;;;6.13;0.82;;;7.40;99.90;;;;;;5054403;28;20075;-75
2023/05/17 00:54:12;;;;;;;11.48;1.65;;;7.40;99.90;;;;;;5054481;28;20035;-75
2023/05/17 00:56:38;;;;;;;8.68;0.70;;;7.40;99.90;;;;;;5054088;28;20365;-75
2023/05/17 00:59:05;;;;;;;9.43;1.02;;;7.50;99.90;;;;;;5036365;28;20051;-75
2023/05/17 01:01:32;;;;;;;9.82;0.82;;;7.50;99.90;;;;;;5036583;28;20435;-75
2023/05/17 01:03:58;;;;;;;6.05;0.70;;;7.60;99.90;;;;;;5054215;28;20021;-75
2023/05/17 01:06:23;;;;;;;9.20;1.90;;;7.60;99.90;;;;;;5054130;28;20026;-75
2023/05/17 01:08:49;;;;;;;11.57;2.25;;;7.60;99.90;;;;;;5053909;28;20033;-75
2023/05/17 01:11:34;;;;;;;5.93;0.82;;;7.60;99.90;;;;;;5054576;28;20029;-75
2023/05/17 01:16:59;;;;;;;9.88;0.77;;;7.70;99.90;;;;;;5836651;22;20045;-76
2023/05/17 01:19:57;;;;;;;12.63;2.10;;;7.70;99.90;;;;;;5036911;28;20028;-76
2023/05/17 01:22:40;;;;;;;2.38;0.43;;;7.70;99.90;;;;;;5030812;28;20401;-77
2023/05/17 01:25:25;;;;;;;7.70;2.13;;;7.80;99.90;;;;;;5054487;28;20060;-77
2023/05/17 01:27:53;;;;;;;9.00;0.70;;;7.80;99.90;;;;;;5054135;28;20490;-78
2023/05/17 01:30:19;;;;;;;6.45;1.08;;;7.80;99.90;;;;;;5035887;28;20021;-76
2023/05/17 01:32:45;;;;;;;5.32;0.95;;;7.90;99.90;;;;;;5036155;28;20555;-76
2023/05/17 01:35:11;;;;;;;3.25;1.00;;;9.40;99.90;;;;;;5054046;28;20056;-76
2023/05/17 01:37:40;;;;;;;4.07;0.60;;;8.10;99.90;;;;;;5036112;28;20025;-76
2023/05/17 01:40:07;;;;;;;9.93;0.90;;;8.10;99.90;;;;;;5054089;28;20449;-76
2023/05/17 01:42:38;;;;;;;7.50;0.77;;;8.20;99.90;;;;;;5054236;28;20498;-77
2023/05/17 01:45:33;;;;;;;5.43;1.20;;;8.20;99.90;;;;;;5036144;28;20028;-76
2023/05/17 01:48:22;;;;;;;8.38;0.93;;;8.30;99.90;;;;;;5035825;28;20092;-77
2023/05/17 01:50:51;;;;;;;6.55;1.08;;;8.40;99.90;;;;;;5036272;28;20369;-77
2023/05/17 01:53:16;;;;;;;7.55;0.85;;;8.40;99.90;;;;;;5035758;28;20021;-77
2023/05/17 01:56:04;;;;;;;7.78;0.88;;;8.50;99.90;;;;;;5053651;28;20024;-77
2023/05/17 01:58:31;;;;;;;15.27;1.92;;;8.50;99.90;;;;;;5053726;28;20021;-77
2023/05/17 02:01:00;;;;;;;6.85;1.27;;;8.50;99.90;;;;;;5035989;28;20021;-77
2023/05/17 02:03:27;;;;;;;4.37;1.70;;;8.50;99.90;;;;;;5053645;28;20017;-77
2023/05/17 02:05:52;;;;;;;13.07;1.27;;;8.60;99.90;;;;;;5054424;28;20033;-77
2023/05/17 02:08:18;;;;;;;8.32;1.33;;;8.50;99.90;;;;;;5053469;28;20044;-77
2023/05/17 02:10:43;;;;;;;6.97;1.13;;;8.50;99.90;;;;;;5035702;28;20028;-77
2023/05/17 02:13:09;;;;;;;13.65;1.45;;;8.50;99.90;;;;;;5053671;28;20021;-78
2023/05/17 02:15:35;;;;;;;12.55;1.63;;;8.40;99.90;;;;;;5035628;28;20053;-77
2023/05/17 02:18:00;;;;;;;10.98;1.00;;;8.40;99.90;;;;;;5035469;28;20033;-77
2023/05/17 02:20:26;;;;;;;8.23;1.08;;;8.30;99.90;;;;;;5053848;28;20021;-77
2023/05/17 02:22:51;;;;;;;18.83;2.80;;;8.20;99.90;;;;;;5035617;28;20479;-77
2023/05/17 02:25:17;;;;;;;10.82;2.45;;;8.20;99.90;;;;;;5035686;28;20017;-77
2023/05/17 02:27:42;;;;;;;9.88;0.95;;;8.10;99.90;;;;;;5053438;28;20021;-77
2023/05/17 02:30:08;;;;;;;12.18;0.98;;;8.00;99.90;;;;;;5035459;28;20021;-77
2023/05/17 02:32:34;;;;;;;15.65;1.30;;;8.10;99.90;;;;;;5035532;28;20063;-77
2023/05/17 02:34:59;;;;;;;7.03;0.68;;;8.00;99.90;;;;;;5053376;28;20028;-77
2023/05/17 02:37:25;;;;;;;9.75;2.10;;;8.00;99.90;;;;;;5035324;28;20031;-77
2023/05/17 02:39:51;;;;;;;6.78;1.35;;;8.00;99.90;;;;;;5053342;28;20029;-77
2023/05/17 02:42:16;;;;;;;10.60;1.25;;;8.00;99.90;;;;;;5054239;28;20025;-77
2023/05/17 02:44:42;;;;;;;14.65;1.75;;;7.90;99.90;;;;;;5056997;28;20025;-77
2023/05/17 02:47:08;;;;;;;14.25;1.08;;;7.90;99.90;;;;;;5038891;28;20456;-77
2023/05/17 02:49:33;;;;;;;10.30;1.27;;;7.90;99.90;;;;;;5038618;28;20096;-77
2023/05/17 02:51:59;;;;;;;12.02;1.00;;;7.90;99.90;;;;;;5038847;28;20078;-76
2023/05/17 02:54:25;;;;;;;7.20;0.95;;;7.80;99.90;;;;;;5039005;28;20032;-77
2023/05/17 02:56:51;;;;;;;14.73;1.30;;;7.80;99.90;;;;;;5038751;28;20029;-77
2023/05/17 02:59:16;;;;;;;12.65;1.27;;;7.80;99.90;;;;;;5038813;28;20107;-77
2023/05/17 03:01:42;;;;;;;8.88;1.70;;;7.80;99.90;;;;;;5038763;28;20071;-77
2023/05/17 03:04:08;;;;;;;4.72;0.75;;;;;;;;;;5056720;28;20039;-78
2023/05/17 03:06:33;;;;;;;10.98;1.17;;;7.70;99.90;;;;;;5038703;28;20468;-78
2023/05/17 03:08:59;;;;;;;11.77;0.93;;;7.70;99.90;;;;;;5056331;28;20098;-78
2023/05/17 03:11:25;;;;;;;10.73;1.50;;;7.80;99.90;;;;;;5038736;28;20071;-78
2023/05/17 03:13:53;;;;;;;10.65;1.88;;;7.70;99.90;;;;;;5038541;28;20021;-78
2023/05/17 03:16:19;;;;;;;6.95;1.60;;;7.70;99.90;;;;;;5056617;28;20025;-78
2023/05/17 03:18:45;;;;;;;13.23;1.83;;;7.70;99.90;;;;;;5056758;28;20075;-78
2023/05/17 03:21:10;;;;;;;7.95;1.88;;;7.70;99.90;;;;;;5038296;28;20048;-78
2023/05/17 03:23:36;;;;;;;6.75;1.17;;;7.70;99.90;;;;;;5056456;28;20059;-78
2023/05/17 03:26:01;;;;;;;13.05;2.45;;;7.70;99.90;;;;;;5038314;28;20052;-78
2023/05/17 03:28:27;;;;;;;6.55;0.77;;;7.70;99.90;;;;;;5038279;28;20387;-78
2023/05/17 03:30:53;;;;;;;9.25;1.85;;;7.70;99.90;;;;;;5038311;28;20075;-78
2023/05/17 03:33:18;;;;;;;8.45;1.65;;;7.80;99.90;;;;;;5056211;28;20434;-78
2023/05/17 03:35:45;;;;;;;10.43;1.33;;;7.80;99.90;;;;;;5037962;28;20021;-78
2023/05/17 03:38:11;;;;;;;8.80;1.60;;;7.90;99.90;;;;;;5056014;28;20475;-78
2023/05/17 03:40:37;;;;;;;7.80;0.82;;;7.90;99.90;;;;;;5056223;28;20017;-78
2023/05/17 03:43:03;;;;;;;9.48;1.85;;;7.90;99.90;;;;;;5037891;28;20032;-78
2023/05/17 03:45:28;;;;;;;9.35;1.30;;;7.90;99.90;;;;;;5055897;28;20468;-78
2023/05/17 03:47:54;;;;;;;18.48;2.55;;;7.80;99.90;;;;;;5055742;28;20391;-78
2023/05/17 03:50:19;;;;;;;10.25;0.80;;;7.80;99.90;;;;;;5038023;28;20090;-78
2023/05/17 03:52:45;;;;;;;5.75;0.47;;;7.80;99.90;;;;;;5037359;28;20513;-78
2023/05/17 03:55:11;;;;;;;15.00;3.00;;;7.80;99.90;;;;;;5055524;28;20502;-78
2023/05/17 03:57:36;;;;;;;10.27;0.95;;;7.80;99.90;;;;;;5055447;28;20033;-78
2023/05/17 04:00:05;;;;;;;3.58;0.28;;;7.70;99.90;;;;;;5037746;28;20021;-78
2023/05/17 04:02:31;;;;;;;;;;;7.70;99.90;;;;;;5037917;28;20083;-78
2023/05/17 04:04:56;;;;;;;8.40;1.23;;;7.70;99.90;;;;;;5037558;28;19905;-78
2023/05/17 04:07:22;;;;;;;11.13;1.00;;;7.60;99.90;;;;;;5055060;28;20562;-78
2023/05/17 04:09:47;;;;;;;9.02;0.70;;;7.60;99.90;;;;;;5055281;28;20029;-77
2023/05/17 04:12:13;;;;;;;11.85;1.05;;;7.60;99.90;;;;;;5037396;28;20149;-77
2023/05/17 04:14:39;;;;;;;12.43;1.42;;;7.50;99.90;;;;;;5055178;28;20120;-77
2023/05/17 04:17:04;;;;;;;10.40;1.50;;;7.50;99.90;;;;;;5055044;28;20538;-77
2023/05/17 04:19:30;;;;;;;11.52;1.05;;;7.50;99.90;;;;;;5037338;28;20102;-77
2023/05/17 04:21:56;;;;;;;8.45;0.17;;;7.60;99.90;;;;;;5037254;28;20112;-77
2023/05/17 04:24:21;;;;;;;7.70;1.17;;;7.60;99.90;;;;;;5055691;28;20017;-77
2023/05/17 04:26:47;;;;;;;6.72;1.17;;;7.60;99.90;;;;;;5054863;28;20029;-77
2023/05/17 04:29:12;;;;;;;12.20;1.00;;;7.60;99.90;;;;;;5055047;28;20021;-77
2023/05/17 04:31:38;;;;;;;8.60;1.08;;;7.60;99.90;;;;;;5054936;28;20432;-77
2023/05/17 04:34:03;;;;;;;16.02;1.67;;;7.70;99.90;;;;;;5054917;28;20482;-77
2023/05/17 04:36:29;;;;;;;19.63;1.15;;;7.70;99.90;;;;;;5037032;28;20060;-77
2023/05/17 04:38:55;;;;;;;8.40;0.30;;;7.80;99.90;;;;;;5054731;28;20067;-77
2023/05/17 04:41:20;;;;;;;8.38;0.22;;;7.80;99.90;;;;;;5036705;28;20031;-77
2023/05/17 04:43:46;;;;;;;9.07;0.82;;;7.80;99.90;;;;;;5054590;28;20096;-77
2023/05/17 04:46:12;;;;;;;7.88;1.42;;;7.90;99.90;;;;;;5036668;28;20017;-77
2023/05/17 04:48:37;;;;;;;10.95;0.77;;;7.90;99.90;;;;;;5054441;28;20107;-77
2023/05/17 04:51:04;;;;;;;12.85;1.00;;;8.00;99.90;;;;;;5036434;28;20055;-77
2023/05/17 04:53:30;;;;;;;8.18;1.35;;;8.10;99.90;;;;;;5054323;28;20029;-77
2023/05/17 04:55:56;;;;;;;7.40;0.55;;;8.10;99.90;;;;;;5054468;28;20028;-77
2023/05/17 04:58:23;;;;;;;11.65;0.60;;;9.80;99.90;;;;;;5036453;28;20029;-77
2023/05/17 05:00:49;;;;;;;20.83;1.40;;;8.30;99.90;;;;;;5036631;28;20056;-77
2023/05/17 05:03:14;;;;;;;9.20;0.65;;;8.40;99.90;;;;;;5054342;28;20036;-77
2023/05/17 05:05:40;;;;;;;10.15;0.55;;;8.50;99.90;;;;;;5035703;28;20479;-77
2023/05/17 05:08:06;;;;;;;7.47;0.80;;;8.60;99.90;;;;;;5054097;28;20033;-77
2023/05/17 05:10:31;;;;;;;14.88;2.13;;;8.60;99.90;;;;;;5036221;28;20056;-77
2023/05/17 05:12:57;;;;;;;5.53;1.13;;;8.80;99.90;;;;;;5036260;28;20450;-77
2023/05/17 05:15:23;;;;;;;12.15;1.30;;;8.70;99.90;;;;;;5054128;28;20017;-77
2023/05/17 05:17:48;;;;;;;10.07;0.57;;;9.00;99.90;;;;;;5053599;28;20109;-77
2023/05/17 05:20:14;;;;;;;7.00;0.68;;;8.90;99.90;;;;;;5053902;28;20025;-77
2023/05/17 05:22:40;;;;;;;9.00;0.40;;;10.10;99.90;;;;;;5053883;28;20096;-77
2023/05/17 05:25:06;;;;;;;14.93;0.57;;;9.30;99.90;;;;;;5053625;28;20021;-77
2023/05/17 05:27:34;;;;;;;9.88;0.77;;;9.60;99.90;;;;;;5054114;28;20025;-77
2023/05/17 05:30:00;;;;;;;10.30;0.70;;;9.50;99.90;;;;;;5053795;28;20025;-77
2023/05/17 05:32:25;;;;;;;10.82;0.93;;;9.60;99.90;;;;;;5036066;28;20021;-77
2023/05/17 05:34:51;;;;;;;9.98;0.55;;;9.70;99.90;;;;;;5036411;28;20025;-77
2023/05/17 05:37:18;;;;;;;12.85;0.70;;;9.80;99.90;;;;;;5035803;28;20545;-77
2023/05/17 05:39:44;;;;;;;5.53;0.50;;;9.90;99.90;;;;;;5053708;28;20054;-77
2023/05/17 05:42:10;;;;;;;11.80;0.70;;;10.00;99.90;;;;;;5054249;28;20021;-74
2023/05/17 05:44:35;;;;;;;11.18;0.65;;;10.10;99.90;;;;;;5036225;28;20036;-77
2023/05/17 05:47:01;;;;;;;9.82;1.45;;;10.20;99.90;;;;;;5054195;28;20029;-77
2023/05/17 05:49:27;;;;;;;6.50;0.30;;;10.20;99.90;;;;;;5036064;28;20028;-77
2023/05/17 05:51:52;;;;;;;11.80;0.63;;;10.30;99.90;;;;;;5053805;28;20539;-77
2023/05/17 05:54:18;;;;;;;10.63;0.95;;;10.50;99.90;;;;;;5053804;28;20100;-77
2023/05/17 05:56:44;;;;;;;9.90;0.47;;;10.60;99.90;;;;;;5035850;28;20025;-77
2023/05/17 05:59:10;;;;;;;8.38;1.20;;;10.70;99.90;;;;;;5053788;28;20067;-77
2023/05/17 06:01:36;;;;;;;12.98;1.05;;;10.70;99.90;;;;;;5035752;28;20025;-77
2023/05/17 06:04:02;;;;;;;13.95;1.73;;;10.80;99.90;;;;;;5053459;28;20461;-77
2023/05/17 06:06:27;;;;;;;7.53;0.17;;;11.10;99.90;;;;;;5035115;28;20025;-77
2023/05/17 06:08:53;;;;;;;19.30;1.08;;;11.00;99.90;;;;;;5051689;28;20309;-77
2023/05/17 06:11:19;;;;;;;8.75;0.43;;;11.20;99.90;;;;;;5052472;28;20029;-77
2023/05/17 06:13:45;;;;;;;9.95;0.10;;;12.20;99.90;;;;;;5035670;28;20021;-77
2023/05/17 06:16:11;;;;;;;8.13;0.90;;;11.30;99.90;;;;;;5035035;28;20063;-77
2023/05/17 06:18:37;;;;;;;13.82;1.83;;;11.50;99.90;;;;;;5056731;28;20033;-77
2023/05/17 06:21:02;;;;;;;12.10;1.10;;;11.70;99.90;;;;;;5057231;28;20017;-77
2023/05/17 06:23:28;;;;;;;10.00;0.10;;;11.80;99.90;;;;;;5039228;28;20395;-77
2023/05/17 06:25:53;;;;;;;6.47;0.65;;;12.80;99.90;;;;;;5056964;28;20546;-77
2023/05/17 06:28:19;;;;;;;10.20;1.25;;;11.90;99.90;;;;;;5039218;28;20017;-77
2023/05/17 06:30:45;;;;;;;7.55;1.13;;;11.90;99.90;;;;;;5039176;28;20029;-77
2023/05/17 06:33:11;;;;;;;10.30;0.57;;;11.80;99.90;;;;;;5056923;28;20071;-77
2023/05/17 06:35:37;;;;;;;8.68;0.10;;;11.70;99.90;;;;;;5039326;28;20430;-77
2023/05/17 06:38:02;;;;;;;5.47;0.45;;;11.40;99.90;;;;;;5056786;28;20031;-77
2023/05/17 06:40:28;;;;;;;9.00;0.80;;;11.40;99.90;;;;;;5038743;28;20021;-77
2023/05/17 06:42:53;;;;;;;15.63;1.25;;;11.30;99.90;;;;;;5056883;28;20109;-77
2023/05/17 06:45:20;;;;;;;13.23;1.25;;;11.30;99.90;;;;;;5039273;28;20013;-78
2023/05/17 06:47:46;;;;;;;5.70;0.05;;;11.20;99.90;;;;;;5040145;28;20021;-78
2023/05/17 06:50:11;;;;;;;7.53;0.15;;;11.20;99.90;;;;;;5058189;28;20373;-77
2023/05/17 06:52:37;;;;;;;3.80;0.43;;;11.20;99.90;;;;;;5057714;28;20475;-76
2023/05/17 06:55:03;;;;;;;8.70;0.57;;;11.20;99.90;;;;;;5056990;28;20369;-77
2023/05/17 06:57:28;;;;;;;8.10;0.68;;;11.60;99.90;;;;;;5057317;28;20423;-76
2023/05/17 06:59:54;;;;;;;10.80;0.75;;;11.60;99.90;;;;;;5038376;28;20039;-76
2023/05/17 07:02:19;;;;;;;6.50;0.30;;;12.00;99.90;;;;;;5056273;28;20472;-77
2023/05/17 07:04:45;;;;;;;9.38;0.65;;;12.10;99.90;;;;;;5056815;28;20025;-76
2023/05/17 07:07:11;;;;;;;6.85;0.00;;;12.40;99.90;;;;;;5056523;28;20056;-76
2023/05/17 07:09:37;;;;;;;3.63;0.03;;;12.90;99.90;;;;;;5055858;28;20067;-76
2023/05/17 07:12:04;;;;;;;7.78;0.32;;;14.30;99.90;;;;;;5038144;28;20021;-76
2023/05/17 07:14:30;;;;;;;6.07;0.40;;;13.20;99.90;;;;;;5038034;28;20021;-76
2023/05/17 07:16:55;;;;;;;6.88;0.57;;;13.20;99.90;;;;;;5038981;28;20037;-77
2023/05/17 07:19:21;;;;;;;42.33;1.08;;;13.20;99.90;;;;;;5057746;28;20025;-78
2023/05/17 07:21:46;;;;;;;4.93;0.28;;;13.40;99.90;;;;;;5039973;28;20025;-78
2023/05/17 07:24:12;;;;;;;3.30;0.10;;;13.50;99.90;;;;;;5057791;28;20025;-78
2023/05/17 07:26:40;;;;;;;8.20;0.68;;;13.70;99.90;;;;;;5040561;28;20051;-78
2023/05/17 07:29:06;;;;;;;2.35;0.00;;;13.70;99.90;;;;;;5057869;28;20507;-78
2023/05/17 07:31:31;;;;;;;5.47;0.00;;;13.50;99.90;;;;;;5059367;28;20013;-78
2023/05/17 07:33:57;;;;;;;2.08;0.10;;;13.40;99.90;;;;;;5060459;28;20025;-78
2023/05/17 07:36:23;;;;;;;7.07;0.00;;;13.40;99.90;;;;;;5058955;28;20029;-75
2023/05/17 07:38:48;;;;;;;4.07;0.10;;;13.50;99.90;;;;;;5037588;28;20071;-74
2023/05/17 07:41:15;;;;;;;5.53;0.03;;;13.50;99.90;;;;;;5055253;28;20480;-75
2023/05/17 07:43:41;;;;;;;11.32;0.10;;;13.70;99.90;;;;;;5037379;28;20506;-75
2023/05/17 07:46:07;;;;;;;2.75;0.00;;;13.70;99.90;;;;;;5055423;28;20071;-74
2023/05/17 07:48:33;;;;;;;6.00;0.43;;;13.20;99.90;;;;;;5037393;28;20434;-76
2023/05/17 07:50:58;;;;;;;3.22;0.20;;;14.60;99.90;;;;;;5037661;28;20032;-76
2023/05/17 07:53:24;;;;;;;4.22;0.22;;;13.80;99.90;;;;;;5055761;28;20033;-76
2023/05/17 07:55:50;;;;;;;1.85;0.00;;;13.10;99.90;;;;;;5056008;28;20025;-76
2023/05/17 07:58:16;;;;;;;5.18;0.00;;;13.00;99.90;;;;;;5037129;28;20029;-76
2023/05/17 08:00:41;;;;;;;3.58;0.47;;;13.10;99.90;;;;;;5037491;28;20032;-76
2023/05/17 08:03:07;;;;;;;4.18;0.10;;;13.10;99.90;;;;;;5037115;28;20028;-76
2023/05/17 08:05:33;;;;;;;9.15;0.17;;;13.30;99.90;;;;;;5037141;28;20117;-76
2023/05/17 08:07:59;;;;;;;5.47;0.10;;;13.40;99.90;;;;;;5037188;28;20013;-76
2023/05/17 08:10:26;;;;;;;3.65;0.50;;;13.60;99.90;;;;;;5055172;28;20112;-76
2023/05/17 08:12:52;;;;;;;5.45;0.10;;;13.60;99.90;;;;;;5054576;28;20029;-76
2023/05/17 08:15:17;;;;;;;3.30;0.10;;;13.80;99.90;;;;;;5037447;28;20086;-76
2023/05/17 08:17:43;;;;;;;5.90;0.00;;;14.10;99.90;;;;;;5036596;28;20419;-75
2023/05/17 08:20:09;;;;;;;5.88;0.10;;;14.30;99.90;;;;;;5054516;28;20029;-75
2023/05/17 08:22:35;;;;;;;7.88;0.20;;;14.20;99.90;;;;;;5054529;28;20040;-75
2023/05/17 08:25:02;;;;;;;5.38;0.00;;;14.50;99.90;;;;;;5054424;28;20017;-76
2023/05/17 08:27:29;;;;;;;7.25;0.13;;;;;;;;;;5054755;28;20025;-74
2023/05/17 08:29:56;;;;;;;3.92;0.20;;;14.90;99.90;;;;;;5054403;28;20028;-74
2023/05/17 08:32:22;;;;;;;2.15;0.45;;;14.90;99.90;;;;;;5054335;28;20056;-73
2023/05/17 08:34:48;;;;;;;5.40;0.38;;;14.70;99.90;;;;;;5036377;28;20029;-73
2023/05/17 08:37:14;;;;;;;2.88;0.35;;;14.30;99.90;;;;;;5036193;28;20052;-74
2023/05/17 08:39:40;;;;;;;2.42;0.03;;;14.10;99.90;;;;;;5035223;28;20020;-74
2023/05/17 08:42:09;;;;;;;2.75;0.00;;;14.10;99.90;;;;;;5053945;28;20017;-74
2023/05/17 08:44:35;;;;;;;3.55;0.28;;;13.90;99.90;;;;;;5054045;28;20021;-74
2023/05/17 08:47:02;;;;;;;2.28;0.00;;;13.80;99.90;;;;;;5036156;28;20017;-74
2023/05/17 08:49:33;;;;;;;8.27;0.35;;;14.00;99.90;;;;;;5037121;28;20013;-73
2023/05/17 08:52:00;;;;;;;1.52;0.10;;;14.00;99.90;;;;;;5053917;28;20538;-73
2023/05/17 08:54:26;;;;;;;6.30;0.25;;;14.30;99.90;;;;;;5053843;28;20017;-73
2023/05/17 08:56:59;;;;;;;2.83;0.00;;;15.00;99.90;;;;;;5035806;28;20500;-74
2023/05/17 08:59:26;;;;;;;2.80;0.20;;;14.90;99.90;;;;;;5035824;28;20033;-74
2023/05/17 09:01:53;;;;;;;5.72;0.30;;;15.10;99.90;;;;;;5035829;28;20082;-74
2023/05/17 09:04:20;;;;;;;2.25;0.95;;;15.70;99.90;;;;;;5035738;28;20013;-74
2023/05/17 09:06:45;;;;;;;6.20;0.10;;;15.10;99.90;;;;;;5053602;28;20475;-74
2023/05/17 09:09:12;;;;;;;7.60;0.25;;;15.00;99.90;;;;;;5053474;28;20029;-73
2023/05/17 09:11:37;;;;;;;3.63;0.15;;;15.00;99.90;;;;;;5053566;28;20480;-74
2023/05/17 09:14:05;;;;;;;4.28;0.43;;;14.60;98.30;;;;;;5035550;28;20021;-74
2023/05/17 09:16:32;;;;;;;7.63;0.00;;;14.60;98.80;;;;;;5035405;28;20017;-74
2023/05/17 09:18:59;;;;;;;1.25;0.45;;;;;;;;;;5035634;28;20458;-74
2023/05/17 09:21:26;;;;;;;1.80;0.00;;;15.10;98.70;;;;;;5053436;28;20503;-74
2023/05/17 09:23:53;;;;;;;3.50;0.75;;;15.10;97.40;;;;;;5035432;28;20013;-74
2023/05/17 09:26:19;;;;;;;4.10;0.00;;;14.90;95.40;;;;;;5053826;28;20063;-74
2023/05/17 09:28:46;;;;;;;3.75;0.20;;;14.70;98.30;;;;;;5053273;28;20025;-73
2023/05/17 09:31:15;;;;;;;0.75;0.00;;;15.10;99.50;;;;;;5053285;28;20024;-74
2023/05/17 09:33:45;;;;;;;5.80;0.00;;;14.90;97.20;;;;;;5035365;28;20115;-73
2023/05/17 09:36:18;;;;;;;3.90;0.00;;;14.80;94.60;;;;;;5053195;28;20025;-73
2023/05/17 09:38:59;;;;;;;1.73;0.10;;;14.90;95.30;;;;;;5053076;28;20070;-73
2023/05/17 09:41:30;;;;;;;3.53;0.00;;;14.90;96.10;;;;;;5035449;28;20049;-73
2023/05/17 09:44:00;;;;;;;4.45;0.10;;;15.10;96.80;;;;;;5053061;28;20021;-74
2023/05/17 09:46:27;;;;;;;5.13;0.00;;;15.40;98.10;;;;;;5053660;28;20457;-73
2023/05/17 09:48:54;;;;;;;5.00;0.35;;;15.60;95.30;;;;;;5053006;28;20027;-74
2023/05/17 09:51:33;;;;;;;2.35;0.00;;;15.80;96.30;;;;;;5052694;28;20025;-74
2023/05/17 09:53:59;;;;;;;4.82;0.25;;;15.90;94.30;;;;;;5053305;28;20025;-76
2023/05/17 09:56:29;;;;;;;2.88;0.00;;;15.70;94.60;;;;;;5035173;28;20506;-76
2023/05/17 09:58:55;;;;;;;3.35;0.00;;;15.50;93.10;;;;;;5053315;28;20033;-76
2023/05/17 10:01:23;;;;;;;4.85;0.20;;;15.40;94.00;;;;;;5035116;28;20101;-76
2023/05/17 10:03:50;;;;;;;2.30;0.00;;;15.40;92.00;;;;;;5052913;28;20108;-76
2023/05/17 10:06:18;;;;;;;2.60;0.05;;;15.40;92.80;;;;;;5052954;28;20063;-76
2023/05/17 10:08:46;;;;;;;4.47;0.00;;;15.60;93.40;;;;;;5053259;28;20040;-75
2023/05/17 10:11:11;;;;;;;2.75;0.10;;;15.70;92.60;;;;;;5053459;28;20099;-76
2023/05/17 10:13:48;;;;;;;4.53;0.00;;;15.90;92.50;;;;;;5035075;28;20048;-76
2023/05/17 10:16:14;;;;;;;3.88;0.47;;;16.00;92.60;;;;;;5034962;28;20095;-76
2023/05/17 10:18:40;;;;;;;1.58;0.00;;;16.10;90.90;;;;;;5034849;28;20025;-76
2023/05/17 10:21:07;;;;;;;4.95;0.70;;;16.10;87.80;;;;;;5053297;28;20461;-76
2023/05/17 10:23:34;;;;;;;1.63;0.15;;;16.10;93.40;;;;;;5034969;28;20018;-76
2023/05/17 10:26:01;;;;;;;0.60;0.00;;;16.40;91.40;;;;;;5052722;28;20029;-76
2023/05/17 10:28:29;;;;;;;4.32;0.10;;;16.50;89.00;;;;;;5034752;28;20020;-76
2023/05/17 10:30:56;;;;;;;1.10;0.05;;;16.60;89.50;;;;;;5034866;28;20116;-76
2023/05/17 10:33:22;;;;;;;3.42;0.05;;;16.40;84.60;;;;;;5052645;28;20480;-76
2023/05/17 10:35:49;;;;;;;3.75;0.00;;;16.40;83.30;;;;;;5052660;28;20047;-75
2023/05/17 10:38:16;;;;;;;3.03;0.00;;;16.30;81.10;;;;;;5052506;28;20100;-76
2023/05/17 10:40:43;;;;;;;2.85;0.40;;;16.20;81.50;;;;;;5053027;28;20521;-75
2023/05/17 10:43:09;;;;;;;1.38;0.00;;;16.50;85.50;;;;;;5052582;28;20104;-76
2023/05/17 10:45:36;;;;;;;0.90;0.00;;;16.50;79.50;;;;;;5034744;28;20121;-76
2023/05/17 10:48:06;;;;;;;5.82;0.30;;;16.60;80.50;;;;;;5034618;28;20051;-76
2023/05/17 10:50:35;;;;;;;5.85;0.40;;;16.50;80.00;;;;;;5052531;28;20014;-75
2023/05/17 10:53:03;;;;;;;3.53;0.17;;;16.50;82.40;;;;;;5052475;28;20032;-76
2023/05/17 10:55:44;;;;;;;3.03;0.55;;;17.60;83.70;;;;;;5052511;28;20075;-76
2023/05/17 10:58:14;;;;;;;0.52;0.00;;;16.80;82.60;;;;;;5052373;28;20056;-76
2023/05/17 11:00:41;;;;;;;3.33;0.10;;;17.00;84.40;;;;;;5052373;28;20082;-76
2023/05/17 11:03:27;;;;;;;1.08;0.22;;;16.90;79.80;;;;;;5052907;28;20049;-76
2023/05/17 11:06:17;;;;;;;3.33;0.00;;;17.20;76.10;;;;;;5056029;28;20059;-76
2023/05/17 11:08:47;;;;;;;1.30;0.00;;;17.10;78.00;;;;;;5038454;28;20021;-76
2023/05/17 11:11:19;;;;;;;2.42;0.60;;;17.20;74.10;;;;;;5055857;28;20387;-76
2023/05/17 11:13:55;;;;;;;5.68;0.00;;;17.20;74.00;;;;;;5055821;28;20070;-76
2023/05/17 11:16:24;;;;;;;2.72;0.00;;;17.10;82.60;;;;;;5037860;28;20016;-76
2023/05/17 11:18:51;;;;;;;0.35;0.00;;;17.00;74.80;;;;;;5055546;28;20033;-76
2023/05/17 11:21:19;;;;;;;5.57;0.32;;;17.10;79.40;;;;;;5055634;28;20029;-76
2023/05/17 11:23:45;;;;;;;2.05;0.10;;;17.80;81.30;;;;;;5055627;28;20024;-76
2023/05/17 11:26:22;;;;;;;3.47;0.20;;;17.80;79.60;;;;;;5055570;28;20025;-76
2023/05/17 11:28:57;;;;;;;1.50;0.15;;;18.00;75.20;;;;;;5055506;28;20112;-76
2023/05/17 11:31:34;;;;;;;3.65;0.52;;;18.10;76.20;;;;;;5055505;28;20476;-76
2023/05/17 11:34:02;;;;;;;2.38;0.00;;;18.20;73.40;;;;;;5055363;28;20499;-76
2023/05/17 11:36:29;;;;;;;1.90;0.00;;;18.40;72.90;;;;;;5055356;28;20021;-76
2023/05/17 11:39:14;;;;;;;1.55;0.00;;;18.30;73.60;;;;;;5037222;28;20314;-76
2023/05/17 11:41:50;;;;;;;5.20;0.50;;;18.30;74.50;;;;;;5055384;28;20021;-76
2023/05/17 11:44:28;;;;;;;7.20;0.20;;;18.60;74.50;;;;;;5055529;28;20033;-76
2023/05/17 11:47:04;;;;;;;3.33;0.20;;;18.60;74.80;;;;;;5037260;28;20025;-76
2023/05/17 11:49:36;;;;;;;0.65;0.05;;;18.90;75.70;;;;;;5037701;28;20480;-76
2023/05/17 11:52:02;;;;;;;5.45;0.17;;;18.80;71.90;;;;;;5055115;28;20021;-75
2023/05/17 11:54:29;;;;;;;4.28;0.03;;;19.00;73.30;;;;;;5055567;28;20067;-76
2023/05/17 11:56:56;;;;;;;2.67;0.35;;;19.10;75.00;;;;;;5054929;28;20040;-75
2023/05/17 11:59:22;;;;;;;2.65;0.43;;;19.40;66.40;;;;;;5055007;28;20447;-76
2023/05/17 12:01:49;;;;;;;2.28;0.20;;;19.30;66.70;;;;;;5037070;28;20096;-76
2023/05/17 12:04:25;;;;;;;5.55;0.00;;;19.20;66.70;;;;;;5037004;28;20545;-76
2023/05/17 12:06:57;;;;;;;20.30;0.90;;;19.40;71.10;;;;;;5054759;28;20091;-76
2023/05/17 12:09:26;;;;;;;4.47;0.73;;;19.40;69.90;;;;;;5036816;28;20025;-76
2023/05/17 12:11:52;;;;;;;3.85;0.00;;;19.20;67.90;;;;;;5054732;28;20067;-75
2023/05/17 12:14:19;;;;;;;5.68;0.10;;;19.10;65.60;;;;;;5054705;28;20017;-76
2023/05/17 12:16:55;;;;;;;4.43;0.13;;;19.00;68.60;;;;;;5054517;28;20021;-76
2023/05/17 12:19:23;;;;;;;2.70;0.40;;;19.00;65.50;;;;;;5055033;28;20025;-76
2023/05/17 12:21:49;;;;;;;4.38;0.00;;;18.90;68.60;;;;;;5054532;28;20388;-76
2023/05/17 12:24:15;;;;;;;1.27;0.20;;;19.10;69.90;;;;;;5054502;28;20361;-76
2023/05/17 12:26:46;;;;;;;4.25;0.00;;;18.90;67.90;;;;;;5054416;28;20032;-76
2023/05/17 12:29:16;;;;;;;3.63;0.47;;;19.10;67.90;;;;;;5054510;28;20021;-76
2023/05/17 12:31:49;;;;;;;3.15;0.05;;;19.20;69.70;;;;;;5054289;28;20107;-75
2023/05/17 12:34:16;;;;;;;1.55;0.10;;;19.30;66.50;;;;;;5054877;28;20025;-76
2023/05/17 12:36:42;;;;;;;6.03;0.38;;;19.40;69.40;;;;;;5054305;28;20407;-76
2023/05/17 12:39:12;;;;;;;3.35;0.32;;;19.30;66.10;;;;;;5053934;28;20025;-75
2023/05/17 12:41:38;;;;;;;4.18;0.25;;;19.30;66.80;;;;;;5054159;28;20025;-76
2023/05/17 12:44:07;;;;;;;2.38;0.00;;;19.70;66.70;;;;;;5054037;28;20051;-76
2023/05/17 12:46:33;;;;;;;6.80;0.20;;;19.70;67.60;;;;;;5054103;28;20021;-76
2023/05/17 12:49:07;;;;;;;6.63;0.15;;;20.00;64.10;;;;;;5053897;28;20116;-76
2023/05/17 12:51:43;;;;;;;3.70;0.10;;;19.90;65.70;;;;;;5054559;28;20424;-76
2023/05/17 12:54:10;;;;;;;3.45;0.52;;;20.30;69.20;;;;;;5035981;28;20120;-76